Time;durP1;ratioP1;P1;durP2;ratioP2;P2;SDS_P1;SDS_P2;PMS_P1;PMS_P2;Temp;Humidity;BMP_temperature;BMP_pressure;BME280_temperature;BME280_humidity;BME280_pressure;Samples;Min_cycle;Max_cycle;Signal;HPM_P1;HPM_P2
2021/07/18 00:00:45;;;;;;;40.57;36.20;;;;;;;19.00;nan;98775.81;2088954;28;20532;-76
2021/07/18 00:01:46;;;;;;;42.17;37.80;;;;;;;19.02;nan;98770.81;2088828;28;20223;-76
2021/07/18 00:02:48;;;;;;;43.93;39.27;;;;;;;19.04;nan;98765.88;2080675;28;20523;-76
2021/07/18 00:03:49;;;;;;;40.73;36.60;;;;;;;19.04;nan;98779.38;2088699;28;20448;-76
2021/07/18 00:04:52;;;;;;;42.57;37.33;;;;;;;19.03;nan;98772.41;2088833;28;20460;-77
2021/07/18 00:05:52;;;;;;;42.13;37.40;;;;;;;19.05;nan;98774.75;2080425;28;20227;-77
2021/07/18 00:06:54;;;;;;;42.50;38.00;;;;;;;19.04;nan;98784.00;2080531;28;20454;-77
2021/07/18 00:07:54;;;;;;;40.77;36.60;;;;;;;19.00;nan;98778.53;2088771;28;20231;-76
2021/07/18 00:08:57;;;;;;;43.53;37.20;;;;;;;18.98;nan;98777.31;2088828;28;20453;-76
2021/07/18 00:09:57;;;;;;;42.87;38.07;;;;;;;18.96;nan;98774.97;2089585;28;20472;-76
2021/07/18 00:10:59;;;;;;;40.47;36.07;;;;;;;18.95;nan;98773.44;2089439;28;20445;-77
2021/07/18 00:12:00;;;;;;;40.43;36.40;;;;;;;18.95;nan;98770.72;2088745;28;20523;-77
2021/07/18 00:13:02;;;;;;;42.80;38.30;;;;;;;18.98;nan;98772.69;2088694;28;20488;-76
2021/07/18 00:14:04;;;;;;;41.43;37.03;;;;;;;18.93;nan;98770.28;2088787;28;20226;-76
2021/07/18 00:15:08;;;;;;;41.67;37.13;;;;;;;18.98;nan;98769.22;2088680;28;20441;-76
2021/07/18 00:16:10;;;;;;;41.67;37.00;;;;;;;18.99;nan;98768.06;2096253;28;20897;-77
2021/07/18 00:17:11;;;;;;;40.70;34.90;;;;;;;19.02;nan;98773.53;2088748;28;20461;-77
2021/07/18 00:18:12;;;;;;;41.60;37.10;;;;;;;18.99;nan;98765.38;2088557;28;21079;-76
2021/07/18 00:19:14;;;;;;;40.90;36.33;;;;;;;18.97;nan;98754.13;2089407;28;20781;-76
2021/07/18 00:20:15;;;;;;;41.43;37.20;;;;;;;18.94;nan;98761.06;2088709;28;20234;-76
2021/07/18 00:21:16;;;;;;;42.50;37.40;;;;;;;18.97;nan;98763.03;2088382;28;20452;-76
2021/07/18 00:22:17;;;;;;;42.67;38.33;;;;;;;18.98;nan;98772.69;2096809;28;20308;-77
2021/07/18 00:23:19;;;;;;;43.73;39.10;;;;;;;18.96;nan;98755.28;2089368;28;20457;-76
2021/07/18 00:24:19;;;;;;;47.97;39.60;;;;;;;18.97;nan;98773.84;2088596;28;20215;-77
2021/07/18 00:25:21;;;;;;;43.67;39.30;;;;;;;19.05;nan;98763.94;2088942;28;20453;-77
2021/07/18 00:26:23;;;;;;;45.00;40.20;;;;;;;19.03;nan;98771.63;2088220;28;20230;-76
2021/07/18 00:27:24;;;;;;;47.20;38.87;;;;;;;19.15;nan;98774.16;2088347;28;20523;-77
2021/07/18 00:28:26;;;;;;;43.97;39.37;;;;;;;19.11;nan;98774.09;2088574;28;20806;-77
2021/07/18 00:29:27;;;;;;;44.13;39.93;;;;;;;19.07;nan;98784.06;2088634;28;20450;-77
2021/07/18 00:30:28;;;;;;;44.30;39.73;;;;;;;19.07;nan;98788.69;2089347;28;20460;-77
2021/07/18 00:31:30;;;;;;;45.37;40.60;;;;;;;19.04;nan;98795.59;2088482;28;20227;-77
2021/07/18 00:32:32;;;;;;;47.17;42.07;;;;;;;19.03;nan;98799.47;2088580;28;20570;-77
2021/07/18 00:33:33;;;;;;;46.63;41.60;;;;;;;19.05;nan;98804.50;2088685;28;20453;-77
2021/07/18 00:34:34;;;;;;;44.80;40.07;;;;;;;19.10;nan;98810.38;2088709;28;20982;-77
2021/07/18 00:35:35;;;;;;;48.10;43.00;;;;;;;19.13;nan;98809.69;2088506;28;20270;-77
2021/07/18 00:36:37;;;;;;;46.50;41.40;;;;;;;19.14;nan;98813.94;2088603;28;20453;-77
2021/07/18 00:37:39;;;;;;;46.83;41.50;;;;;;;19.21;nan;98821.41;2088302;28;20822;-77
2021/07/18 00:38:41;;;;;;;47.77;42.73;;;;;;;19.18;nan;98816.69;2088511;28;20473;-77
2021/07/18 00:39:41;;;;;;;47.83;42.03;;;;;;;19.20;nan;98820.63;2088624;28;20460;-77
2021/07/18 00:40:43;;;;;;;48.07;42.73;;;;;;;19.19;nan;98815.56;2089324;28;20440;-77
2021/07/18 00:41:44;;;;;;;51.97;46.40;;;;;;;19.18;nan;98822.91;2088798;28;20721;-77
2021/07/18 00:42:46;;;;;;;52.27;43.90;;;;;;;19.19;nan;98815.56;2088659;28;20834;-77
2021/07/18 00:43:46;;;;;;;50.67;42.90;;;;;;;19.20;nan;98809.03;2088773;28;20665;-76
2021/07/18 00:44:48;;;;;;;55.20;44.70;;;;;;;19.19;nan;98808.22;2088651;28;20876;-77
2021/07/18 00:45:55;;;;;;;53.40;43.93;;;;;;;19.18;nan;98806.66;2089262;28;20226;-76
2021/07/18 00:46:58;;;;;;;49.33;43.97;;;;;;;19.19;nan;98788.50;2088305;28;20449;-77
2021/07/18 00:47:58;;;;;;;54.70;43.80;;;;;;;19.18;nan;98793.16;2088348;28;20532;-77
2021/07/18 00:49:00;;;;;;;52.47;45.80;;;;;;;19.19;nan;98792.00;2088470;28;20485;-77
2021/07/18 00:50:05;;;;;;;53.87;44.47;;;;;;;19.19;nan;98802.03;2080321;28;20235;-77
2021/07/18 00:51:06;;;;;;;48.00;42.90;;;;;;;19.17;nan;98805.09;2088690;28;20508;-77
2021/07/18 00:52:07;;;;;;;48.63;43.43;;;;;;;19.17;nan;98805.09;2088847;28;20488;-77
2021/07/18 00:53:09;;;;;;;45.17;40.37;;;;;;;19.18;nan;98806.66;2088417;28;20459;-77
2021/07/18 00:54:09;;;;;;;43.97;39.53;;;;;;;19.19;nan;98813.63;2088243;28;20218;-77
2021/07/18 00:55:12;;;;;;;44.63;39.93;;;;;;;19.19;nan;98810.94;2088364;28;20468;-78
2021/07/18 00:56:13;;;;;;;42.57;38.17;;;;;;;19.20;nan;98814.44;2088407;28;20577;-76
2021/07/18 00:57:14;;;;;;;42.60;38.07;;;;;;;19.19;nan;98821.75;2080308;28;20446;-77
2021/07/18 00:58:16;;;;;;;39.37;35.57;;;;;;;19.18;nan;98833.72;2088666;28;20701;-77
2021/07/18 00:59:17;;;;;;;38.57;34.73;;;;;;;19.16;nan;98833.28;2088527;28;20487;-77
2021/07/18 01:00:18;;;;;;;38.27;34.87;;;;;;;19.13;nan;98834.03;2089148;28;20540;-77
2021/07/18 01:01:20;;;;;;;40.23;36.27;;;;;;;19.14;nan;98822.06;2089142;28;20445;-77
2021/07/18 01:02:22;;;;;;;38.90;35.17;;;;;;;19.12;nan;98818.94;2089235;28;20461;-76
2021/07/18 01:03:25;;;;;;;37.87;34.30;;;;;;;19.17;nan;98824.03;2087940;28;20480;-77
2021/07/18 01:04:26;;;;;;;38.83;35.27;;;;;;;19.11;nan;98805.75;2088405;28;20457;-77
2021/07/18 01:05:27;;;;;;;37.97;34.30;;;;;;;19.14;nan;98811.25;2089079;28;20574;-77
2021/07/18 01:06:28;;;;;;;37.13;33.63;;;;;;;19.15;nan;98809.31;2088265;28;20249;-76
2021/07/18 01:07:29;;;;;;;39.00;35.23;;;;;;;19.11;nan;98798.44;2088323;28;20452;-77
2021/07/18 01:08:30;;;;;;;38.53;34.57;;;;;;;19.17;nan;98807.03;2088979;28;20215;-77
2021/07/18 01:09:32;;;;;;;40.60;36.43;;;;;;;19.14;nan;98799.66;2088103;28;20935;-77
2021/07/18 01:10:33;;;;;;;38.40;34.70;;;;;;;19.15;nan;98796.56;2088142;28;20219;-77
2021/07/18 01:11:34;;;;;;;40.77;36.77;;;;;;;19.13;nan;98796.16;2080194;28;21005;-76
2021/07/18 01:12:35;;;;;;;39.17;35.13;;;;;;;19.11;nan;98787.63;2079317;28;20220;-77
2021/07/18 01:13:39;;;;;;;42.17;38.00;;;;;;;19.15;nan;98796.56;2080095;28;20462;-77
2021/07/18 01:14:39;;;;;;;41.60;37.50;;;;;;;19.21;nan;98791.66;2088346;28;20816;-76
2021/07/18 01:15:41;;;;;;;44.20;39.60;;;;;;;19.17;nan;98797.00;2089045;28;20537;-76
2021/07/18 01:16:42;;;;;;;43.47;39.17;;;;;;;19.15;nan;98807.41;2088258;28;20238;-77
2021/07/18 01:17:46;;;;;;;43.13;38.87;;;;;;;19.08;nan;98796.44;2088462;28;20460;-77
2021/07/18 01:18:46;;;;;;;44.10;39.63;;;;;;;19.13;nan;98804.28;2089144;28;20456;-77
2021/07/18 01:19:48;;;;;;;42.20;38.13;;;;;;;19.16;nan;98803.53;2088309;28;20445;-76
2021/07/18 01:20:49;;;;;;;46.20;41.37;;;;;;;19.17;nan;98801.63;2088208;28;20240;-76
2021/07/18 01:21:58;;;;;;;47.17;39.97;;;;;;;19.17;nan;98805.09;2088196;28;20453;-76
2021/07/18 01:22:59;;;;;;;44.57;40.17;;;;;;;19.17;nan;98809.72;2087951;28;20214;-77
2021/07/18 01:24:00;;;;;;;44.60;39.73;;;;;;;19.15;nan;98801.22;2088093;28;20846;-76
2021/07/18 01:25:05;;;;;;;42.03;37.57;;;;;;;19.15;nan;98801.22;2088134;28;20445;-76
2021/07/18 01:26:07;;;;;;;44.83;39.90;;;;;;;19.19;nan;98804.75;2088066;28;21002;-77
2021/07/18 01:27:07;;;;;;;47.23;42.30;;;;;;;19.15;nan;98799.28;2079386;28;20462;-77
2021/07/18 01:28:11;;;;;;;43.93;39.33;;;;;;;19.19;nan;98791.22;2087937;28;20454;-77
2021/07/18 01:29:11;;;;;;;45.20;39.77;;;;;;;19.18;nan;98789.66;2079994;28;20455;-76
2021/07/18 01:30:14;;;;;;;45.60;40.20;;;;;;;19.19;nan;98805.53;2088202;28;20433;-77
2021/07/18 01:31:15;;;;;;;46.33;41.10;;;;;;;19.18;nan;98803.97;2087699;28;20285;-77
2021/07/18 01:32:16;;;;;;;45.47;40.53;;;;;;;19.15;nan;98801.97;2088151;28;20488;-76
2021/07/18 01:33:17;;;;;;;48.37;42.03;;;;;;;19.18;nan;98809.38;2088167;28;20218;-77
2021/07/18 01:34:19;;;;;;;45.73;41.13;;;;;;;19.17;nan;98807.81;2088378;28;20437;-77
2021/07/18 01:35:20;;;;;;;47.53;41.53;;;;;;;19.18;nan;98816.69;2088287;28;20223;-77
2021/07/18 01:36:21;;;;;;;48.00;42.50;;;;;;;19.15;nan;98812.03;2088853;28;20919;-77
2021/07/18 01:37:23;;;;;;;47.60;42.47;;;;;;;19.15;nan;98820.91;2088600;28;20219;-78
2021/07/18 01:38:27;;;;;;;46.20;41.50;;;;;;;19.16;nan;98819.00;2088373;28;20456;-77
2021/07/18 01:39:28;;;;;;;48.07;42.93;;;;;;;19.16;nan;98825.19;2088016;28;20464;-77
2021/07/18 01:40:29;;;;;;;47.07;42.07;;;;;;;19.18;nan;98827.53;2088183;28;20967;-76
2021/07/18 01:41:30;;;;;;;46.63;41.53;;;;;;;19.24;nan;98836.13;2079997;28;20658;-77
2021/07/18 01:42:32;;;;;;;47.60;41.57;;;;;;;19.30;nan;98835.50;2088047;28;20883;-77
2021/07/18 01:43:33;;;;;;;48.77;43.77;;;;;;;19.27;nan;98827.28;2088067;28;20658;-76
2021/07/18 01:44:34;;;;;;;48.27;43.10;;;;;;;19.30;nan;98826.59;2087976;28;20457;-77
2021/07/18 01:45:35;;;;;;;53.57;43.90;;;;;;;19.25;nan;98822.25;2088265;28;20227;-77
2021/07/18 01:46:37;;;;;;;49.30;44.20;;;;;;;19.26;nan;98833.84;2088203;28;20446;-77
2021/07/18 01:47:39;;;;;;;48.47;43.30;;;;;;;19.29;nan;98838.56;2087498;28;20257;-77
2021/07/18 01:48:41;;;;;;;52.47;44.30;;;;;;;19.30;nan;98832.00;2079987;28;20533;-76
2021/07/18 01:49:42;;;;;;;47.90;43.07;;;;;;;19.30;nan;98835.50;2087622;28;20947;-77
2021/07/18 01:50:44;;;;;;;47.83;42.90;;;;;;;19.30;nan;98840.13;2088012;28;20782;-76
2021/07/18 01:51:45;;;;;;;46.53;41.40;;;;;;;19.32;nan;98841.31;2088030;28;20233;-77
2021/07/18 01:52:48;;;;;;;47.33;42.33;;;;;;;19.35;nan;98850.63;2088112;28;20488;-76
2021/07/18 01:53:50;;;;;;;46.80;41.60;;;;;;;19.34;nan;98843.66;2088027;28;20309;-77
2021/07/18 01:54:54;;;;;;;47.90;42.67;;;;;;;19.32;nan;98837.84;2080206;28;20564;-77
2021/07/18 01:55:55;;;;;;;45.97;40.97;;;;;;;19.32;nan;98837.84;2079689;28;20941;-76
2021/07/18 01:56:56;;;;;;;46.97;41.00;;;;;;;19.31;nan;98839.75;2087974;28;20828;-76
2021/07/18 01:57:57;;;;;;;49.47;42.70;;;;;;;19.31;nan;98828.94;2088576;28;20222;-77
2021/07/18 01:58:59;;;;;;;46.13;41.10;;;;;;;19.31;nan;98833.56;2088179;28;20445;-77
2021/07/18 01:59:59;;;;;;;45.90;40.93;;;;;;;19.31;nan;98830.88;2087896;28;20226;-77
2021/07/18 02:01:01;;;;;;;46.33;41.10;;;;;;;19.33;nan;98836.69;2088698;28;20859;-77
2021/07/18 02:02:02;;;;;;;48.27;41.33;;;;;;;19.31;nan;98828.16;2087830;28;20226;-76
2021/07/18 02:03:04;;;;;;;46.90;42.00;;;;;;;19.35;nan;98831.69;2087998;28;20456;-77
2021/07/18 02:04:05;;;;;;;44.67;39.87;;;;;;;19.33;nan;98836.69;2088766;28;20453;-77
2021/07/18 02:05:08;;;;;;;45.80;39.77;;;;;;;19.33;nan;98840.16;2088068;28;20458;-77
2021/07/18 02:06:10;;;;;;;46.03;41.03;;;;;;;19.36;nan;98846.78;2087684;28;20599;-76
2021/07/18 02:07:12;;;;;;;47.73;38.87;;;;;;;19.33;nan;98848.28;2088756;28;20468;-77
2021/07/18 02:08:14;;;;;;;43.47;38.87;;;;;;;19.32;nan;98852.13;2087965;28;20833;-77
2021/07/18 02:09:16;;;;;;;44.13;39.23;;;;;;;19.33;nan;98852.91;2087791;28;20445;-77
2021/07/18 02:10:19;;;;;;;44.37;39.60;;;;;;;19.32;nan;98856.78;2087734;28;20872;-77
2021/07/18 02:11:21;;;;;;;42.13;37.90;;;;;;;19.31;nan;98857.91;2087875;28;20477;-77
2021/07/18 02:12:22;;;;;;;43.93;39.00;;;;;;;19.31;nan;98847.88;2087618;28;20464;-77
2021/07/18 02:13:24;;;;;;;44.17;37.87;;;;;;;19.32;nan;98848.66;2087812;28;20453;-78
2021/07/18 02:14:25;;;;;;;45.73;38.97;;;;;;;19.32;nan;98851.34;2087800;28;20326;-77
2021/07/18 02:15:26;;;;;;;44.00;39.37;;;;;;;19.30;nan;98838.19;2088109;28;20456;-77
2021/07/18 02:16:28;;;;;;;43.47;37.90;;;;;;;19.32;nan;98841.31;2087858;28;20230;-77
2021/07/18 02:17:30;;;;;;;41.93;37.53;;;;;;;19.30;nan;98827.38;2080070;28;20447;-76
2021/07/18 02:18:30;;;;;;;42.07;37.83;;;;;;;19.29;nan;98825.03;2087904;28;20449;-77
2021/07/18 02:19:32;;;;;;;43.20;38.47;;;;;;;19.27;nan;98819.97;2087716;28;20460;-77
2021/07/18 02:20:33;;;;;;;42.93;38.33;;;;;;;19.30;nan;98829.31;2087967;28;20705;-76
2021/07/18 02:21:35;;;;;;;43.17;38.50;;;;;;;19.29;nan;98827.75;2088026;28;20933;-76
2021/07/18 02:22:41;;;;;;;43.53;38.93;;;;;;;19.28;nan;98834.25;2087717;28;20285;-77
2021/07/18 02:23:44;;;;;;;42.60;38.10;;;;;;;19.25;nan;98826.88;2087071;28;20454;-77
2021/07/18 02:24:45;;;;;;;43.27;38.97;;;;;;;19.26;nan;98828.44;2088038;28;20449;-77
2021/07/18 02:25:48;;;;;;;43.47;38.93;;;;;;;19.23;nan;98829.16;2088654;28;20445;-77
2021/07/18 02:26:48;;;;;;;43.63;39.00;;;;;;;19.25;nan;98835.00;2088522;28;20845;-77
2021/07/18 02:27:50;;;;;;;45.50;38.77;;;;;;;19.23;nan;98823.75;2088508;28;20475;-76
2021/07/18 02:28:51;;;;;;;42.43;37.90;;;;;;;19.21;nan;98824.13;2087793;28;20219;-77
2021/07/18 02:29:52;;;;;;;42.60;37.97;;;;;;;19.26;nan;98831.16;2087548;28;21014;-79
2021/07/18 02:30:53;;;;;;;42.47;38.17;;;;;;;19.22;nan;98827.59;2088555;28;20258;-77
2021/07/18 02:31:55;;;;;;;41.40;37.20;;;;;;;19.22;nan;98833.00;2087661;28;20450;-77
2021/07/18 02:32:56;;;;;;;41.27;36.70;;;;;;;19.17;nan;98836.78;2087943;28;20599;-76
2021/07/18 02:33:58;;;;;;;40.67;36.37;;;;;;;19.13;nan;98825.13;2087812;28;20904;-76
2021/07/18 02:34:59;;;;;;;40.60;36.47;;;;;;;19.14;nan;98832.09;2087746;28;20446;-77
2021/07/18 02:36:01;;;;;;;40.73;36.70;;;;;;;19.12;nan;98829.75;2088702;28;20536;-77
2021/07/18 02:37:02;;;;;;;40.83;37.03;;;;;;;19.11;nan;98833.59;2088514;28;20253;-77
2021/07/18 02:38:04;;;;;;;40.07;36.17;;;;;;;19.08;nan;98836.22;2088565;28;20453;-77
2021/07/18 02:39:06;;;;;;;38.27;34.37;;;;;;;19.03;nan;98829.19;2088396;28;20233;-77
2021/07/18 02:40:08;;;;;;;39.00;35.20;;;;;;;18.99;nan;98833.75;2088386;28;21003;-76
2021/07/18 02:41:09;;;;;;;39.23;35.50;;;;;;;19.02;nan;98830.31;2087954;28;20468;-76
2021/07/18 02:42:10;;;;;;;39.37;35.47;;;;;;;18.97;nan;98833.31;2087958;28;20536;-79
2021/07/18 02:43:11;;;;;;;39.00;35.30;;;;;;;18.95;nan;98829.41;2087794;28;20227;-77
2021/07/18 02:44:14;;;;;;;40.10;36.07;;;;;;;18.93;nan;98827.06;2088533;28;20450;-77
2021/07/18 02:45:18;;;;;;;40.43;36.20;;;;;;;18.91;nan;98824.72;2088535;28;20218;-77
2021/07/18 02:46:20;;;;;;;40.03;35.80;;;;;;;18.90;nan;98822.38;2087662;28;20540;-77
2021/07/18 02:47:21;;;;;;;38.97;34.97;;;;;;;18.88;nan;98828.13;2087904;28;20508;-76
2021/07/18 02:48:23;;;;;;;41.10;36.73;;;;;;;18.86;nan;98825.00;2087363;28;20537;-77
2021/07/18 02:49:23;;;;;;;39.00;34.80;;;;;;;18.85;nan;98826.16;2087632;28;20222;-77
2021/07/18 02:50:27;;;;;;;39.97;34.97;;;;;;;18.84;nan;98823.78;2087623;28;20457;-77
2021/07/18 02:51:28;;;;;;;38.30;34.30;;;;;;;18.82;nan;98823.38;2087918;28;20214;-76
2021/07/18 02:52:29;;;;;;;39.50;35.37;;;;;;;18.83;nan;98823.00;2087636;28;20839;-78
2021/07/18 02:53:30;;;;;;;39.43;35.63;;;;;;;18.83;nan;98827.63;2087771;28;20681;-77
2021/07/18 02:54:33;;;;;;;44.27;37.10;;;;;;;18.83;nan;98819.53;2087490;28;20813;-77
2021/07/18 02:55:34;;;;;;;38.83;35.03;;;;;;;18.79;nan;98814.06;2095902;28;20221;-77
2021/07/18 02:56:35;;;;;;;39.03;34.90;;;;;;;18.80;nan;98820.25;2088466;28;20533;-77
2021/07/18 02:57:36;;;;;;;42.07;36.67;;;;;;;18.79;nan;98821.38;2088390;28;20230;-78
2021/07/18 02:58:38;;;;;;;40.33;36.03;;;;;;;18.76;nan;98812.03;2087213;28;20472;-79
2021/07/18 02:59:38;;;;;;;40.97;36.50;;;;;;;18.83;nan;98814.13;2087773;28;20684;-79
2021/07/18 03:00:40;;;;;;;40.10;35.87;;;;;;;18.83;nan;98816.81;2088307;28;20842;-78
2021/07/18 03:01:41;;;;;;;41.27;36.70;;;;;;;18.83;nan;98822.22;2088489;28;20735;-79
2021/07/18 03:02:43;;;;;;;40.60;36.40;;;;;;;18.83;nan;98806.78;2087660;28;20892;-78
2021/07/18 03:03:44;;;;;;;40.30;36.13;;;;;;;18.85;nan;98803.72;2087632;28;20233;-78
2021/07/18 03:04:45;;;;;;;40.93;36.63;;;;;;;18.86;nan;98803.38;2087735;28;20444;-78
2021/07/18 03:05:46;;;;;;;43.63;37.27;;;;;;;18.84;nan;98796.75;2087640;28;20222;-78
2021/07/18 03:06:48;;;;;;;40.60;34.37;;;;;;;18.87;nan;98790.66;2087771;28;20449;-78
2021/07/18 03:07:48;;;;;;;39.93;35.83;;;;;;;18.92;nan;98795.75;2087684;28;20215;-78
2021/07/18 03:08:50;;;;;;;39.33;35.27;;;;;;;18.91;nan;98786.06;2088479;28;20544;-78
2021/07/18 03:09:52;;;;;;;40.00;35.77;;;;;;;18.91;nan;98796.91;2087665;28;20226;-78
2021/07/18 03:10:54;;;;;;;40.50;36.53;;;;;;;18.90;nan;98787.22;2087243;28;21008;-79
2021/07/18 03:11:55;;;;;;;39.30;35.23;;;;;;;18.97;nan;98795.47;2088336;28;20461;-78
2021/07/18 03:12:57;;;;;;;39.10;35.10;;;;;;;18.97;nan;98792.78;2095852;28;20782;-78
2021/07/18 03:13:58;;;;;;;39.27;35.53;;;;;;;19.01;nan;98790.13;2087633;28;20449;-78
2021/07/18 03:15:00;;;;;;;39.60;35.40;;;;;;;19.02;nan;98786.28;2087502;28;21038;-78
2021/07/18 03:16:01;;;;;;;39.90;35.93;;;;;;;19.04;nan;98784.78;2087431;28;20246;-78
2021/07/18 03:17:02;;;;;;;42.40;36.07;;;;;;;19.08;nan;98785.63;2087509;28;20438;-78
2021/07/18 03:18:06;;;;;;;39.70;35.43;;;;;;;19.13;nan;98782.63;2087510;28;20701;-78
2021/07/18 03:19:08;;;;;;;39.53;35.33;;;;;;;19.16;nan;98781.13;2087267;28;20512;-78
2021/07/18 03:20:11;;;;;;;39.43;35.47;;;;;;;19.19;nan;98786.59;2087866;28;20537;-78
2021/07/18 03:21:12;;;;;;;38.53;34.73;;;;;;;19.26;nan;98787.88;2087649;28;20438;-78
2021/07/18 03:22:13;;;;;;;38.40;34.53;;;;;;;19.32;nan;98784.50;2088227;28;20449;-78
2021/07/18 03:23:15;;;;;;;42.77;35.60;;;;;;;19.33;nan;98786.06;2088435;28;20480;-78
2021/07/18 03:24:15;;;;;;;37.97;34.10;;;;;;;19.35;nan;98788.41;2087992;28;20219;-78
2021/07/18 03:25:19;;;;;;;35.43;32.07;;;;;;;19.42;nan;98785.81;2087741;28;20452;-77
2021/07/18 03:26:19;;;;;;;35.73;32.30;;;;;;;19.45;nan;98790.50;2095932;28;20229;-78
2021/07/18 03:27:21;;;;;;;38.63;31.83;;;;;;;19.45;nan;98785.09;2095917;28;20543;-77
2021/07/18 03:28:23;;;;;;;36.37;32.87;;;;;;;19.46;nan;98784.75;2088078;28;20230;-79
2021/07/18 03:29:25;;;;;;;37.37;33.30;;;;;;;19.43;nan;98781.97;2087488;28;20457;-78
2021/07/18 03:30:25;;;;;;;35.90;32.10;;;;;;;19.49;nan;98788.66;2086912;28;20446;-78
2021/07/18 03:31:27;;;;;;;35.57;32.23;;;;;;;19.51;nan;98785.59;2087641;28;20670;-78
2021/07/18 03:32:28;;;;;;;38.47;33.20;;;;;;;19.55;nan;98786.44;2095429;28;20225;-78
2021/07/18 03:33:30;;;;;;;36.23;32.70;;;;;;;19.56;nan;98779.88;2087006;28;20508;-78
2021/07/18 03:34:31;;;;;;;35.50;31.87;;;;;;;19.59;nan;98781.88;2087639;28;20460;-78
2021/07/18 03:35:32;;;;;;;35.67;32.17;;;;;;;19.61;nan;98785.00;2087834;28;20464;-78
2021/07/18 03:36:34;;;;;;;36.37;32.73;;;;;;;19.62;nan;98781.94;2089072;28;20215;-78
2021/07/18 03:37:35;;;;;;;36.43;32.63;;;;;;;19.67;nan;98786.25;2089763;28;20970;-78
2021/07/18 03:38:37;;;;;;;35.27;31.87;;;;;;;19.69;nan;98773.16;2089842;28;20503;-78
2021/07/18 03:39:38;;;;;;;34.67;31.27;;;;;;;19.72;nan;98780.53;2088542;28;20851;-78
2021/07/18 03:40:41;;;;;;;34.10;30.73;;;;;;;19.75;nan;98779.81;2089137;28;20541;-78
2021/07/18 03:41:42;;;;;;;35.33;31.83;;;;;;;19.79;nan;98785.28;2089873;28;20677;-78
2021/07/18 03:42:44;;;;;;;34.50;31.03;;;;;;;19.80;nan;98787.63;2089012;28;20812;-78
2021/07/18 03:43:45;;;;;;;35.17;31.47;;;;;;;19.84;nan;98790.41;2089332;28;20211;-78
2021/07/18 03:44:47;;;;;;;33.07;29.97;;;;;;;19.84;nan;98782.28;2089086;28;20442;-78
2021/07/18 03:45:47;;;;;;;34.23;30.80;;;;;;;19.84;nan;98787.69;2089810;28;20693;-78
2021/07/18 03:46:49;;;;;;;34.80;31.13;;;;;;;19.86;nan;98777.25;2088991;28;20794;-78
2021/07/18 03:47:50;;;;;;;33.80;30.40;;;;;;;19.88;nan;98774.97;2089125;28;20282;-78
2021/07/18 03:48:51;;;;;;;34.50;31.00;;;;;;;19.89;nan;98768.41;2089052;28;20449;-78
2021/07/18 03:49:52;;;;;;;35.13;31.53;;;;;;;19.92;nan;98773.09;2089322;28;20258;-79
2021/07/18 03:50:54;;;;;;;34.80;31.23;;;;;;;19.95;nan;98772.38;2088813;28;20457;-78
2021/07/18 03:51:54;;;;;;;34.17;31.07;;;;;;;19.93;nan;98770.03;2088872;28;20254;-78
2021/07/18 03:52:56;;;;;;;35.40;31.70;;;;;;;19.96;nan;98771.22;2089753;28;20457;-78
2021/07/18 03:53:57;;;;;;;35.43;31.80;;;;;;;19.97;nan;98775.47;2089513;28;20465;-78
2021/07/18 03:54:59;;;;;;;35.73;32.03;;;;;;;20.01;nan;98768.22;2088961;28;20520;-78
2021/07/18 03:56:01;;;;;;;35.20;31.70;;;;;;;20.03;nan;98771.31;2089058;28;20270;-78
2021/07/18 03:57:02;;;;;;;36.87;33.23;;;;;;;20.04;nan;98772.88;2088967;28;20502;-78
2021/07/18 03:58:03;;;;;;;35.57;32.27;;;;;;;20.08;nan;98784.56;2088841;28;20457;-78
2021/07/18 03:59:05;;;;;;;36.20;32.43;;;;;;;20.13;nan;98789.66;2088861;28;20460;-77
2021/07/18 04:00:06;;;;;;;36.67;33.07;;;;;;;20.18;nan;98792.06;2080677;28;20223;-77
2021/07/18 04:01:11;;;;;;;36.47;32.70;;;;;;;20.18;nan;98786.63;2088540;28;20545;-77
2021/07/18 04:02:12;;;;;;;35.87;32.27;;;;;;;20.19;nan;98788.19;2088829;28;20548;-77
2021/07/18 04:03:14;;;;;;;36.27;32.67;;;;;;;20.17;nan;98793.19;2089193;28;20449;-77
2021/07/18 04:04:15;;;;;;;35.20;31.77;;;;;;;20.19;nan;98788.19;2097267;28;20222;-76
2021/07/18 04:05:17;;;;;;;36.50;32.57;;;;;;;20.19;nan;98790.91;2089808;28;20445;-78
2021/07/18 04:06:18;;;;;;;35.23;31.53;;;;;;;20.21;nan;98785.88;2088719;28;20230;-77
2021/07/18 04:07:20;;;;;;;33.67;30.50;;;;;;;20.23;nan;98790.94;2080872;28;20462;-77
2021/07/18 04:08:21;;;;;;;35.10;31.47;;;;;;;20.22;nan;98790.16;2088920;28;20537;-77
2021/07/18 04:09:23;;;;;;;33.90;30.50;;;;;;;20.19;nan;98788.19;2089183;28;20460;-77
2021/07/18 04:10:23;;;;;;;33.07;29.97;;;;;;;20.17;nan;98793.19;2088408;28;20285;-78
2021/07/18 04:11:26;;;;;;;34.27;31.07;;;;;;;20.15;nan;98794.69;2080177;28;20518;-77
2021/07/18 04:12:27;;;;;;;34.03;30.73;;;;;;;20.14;nan;98795.84;2080676;28;20607;-77
2021/07/18 04:13:29;;;;;;;33.67;30.50;;;;;;;20.10;nan;98800.44;2088868;28;20475;-77
2021/07/18 04:14:30;;;;;;;35.03;31.63;;;;;;;20.08;nan;98798.09;2088281;28;20238;-78
2021/07/18 04:15:32;;;;;;;34.53;30.93;;;;;;;20.04;nan;98798.03;2088638;28;20445;-78
2021/07/18 04:16:33;;;;;;;33.80;30.67;;;;;;;20.02;nan;98804.97;2089428;28;20222;-78
2021/07/18 04:17:34;;;;;;;34.63;31.17;;;;;;;19.98;nan;98791.41;2089560;28;20503;-78
2021/07/18 04:18:35;;;;;;;34.40;31.10;;;;;;;19.97;nan;98797.94;2088974;28;20214;-78
2021/07/18 04:19:37;;;;;;;35.13;31.80;;;;;;;19.92;nan;98802.91;2088557;28;20468;-78
2021/07/18 04:20:38;;;;;;;36.37;32.70;;;;;;;19.86;nan;98802.41;2088698;28;20855;-78
2021/07/18 04:21:40;;;;;;;36.47;32.90;;;;;;;19.84;nan;98798.50;2088917;28;20469;-78
2021/07/18 04:22:41;;;;;;;37.40;32.33;;;;;;;19.85;nan;98805.50;2088587;28;20230;-78
2021/07/18 04:23:44;;;;;;;35.73;32.23;;;;;;;19.82;nan;98803.53;2089024;28;20978;-79
2021/07/18 04:24:44;;;;;;;37.33;33.53;;;;;;;19.78;nan;98803.44;2088818;28;20218;-78
2021/07/18 04:25:46;;;;;;;38.20;34.20;;;;;;;19.79;nan;98801.53;2088854;28;21051;-78
2021/07/18 04:26:48;;;;;;;37.53;33.53;;;;;;;19.74;nan;98806.09;2088637;28;20249;-78
2021/07/18 04:27:49;;;;;;;38.20;34.27;;;;;;;19.73;nan;98806.47;2088635;28;20462;-78
2021/07/18 04:28:50;;;;;;;37.33;33.63;;;;;;;19.74;nan;98811.53;2088801;28;20465;-78
2021/07/18 04:29:52;;;;;;;37.30;33.63;;;;;;;19.79;nan;98798.81;2088682;28;20532;-78
2021/07/18 04:30:52;;;;;;;38.87;35.00;;;;;;;19.80;nan;98800.38;2089072;28;20700;-78
2021/07/18 04:31:55;;;;;;;39.40;34.73;;;;;;;19.80;nan;98797.66;2088432;28;20480;-78
2021/07/18 04:32:56;;;;;;;40.07;35.87;;;;;;;19.84;nan;98810.13;2088753;28;20489;-78
2021/07/18 04:33:58;;;;;;;39.83;35.50;;;;;;;19.89;nan;98809.03;2088565;28;20454;-79
2021/07/18 04:34:59;;;;;;;39.13;35.13;;;;;;;19.90;nan;98813.31;2088670;28;20743;-77
2021/07/18 04:36:00;;;;;;;39.57;35.37;;;;;;;19.91;nan;98804.03;2089399;28;20442;-78
2021/07/18 04:37:02;;;;;;;39.43;35.30;;;;;;;19.89;nan;98807.09;2089505;28;20935;-78
2021/07/18 04:38:04;;;;;;;38.70;34.67;;;;;;;19.87;nan;98811.31;2089441;28;20830;-78
2021/07/18 04:39:05;;;;;;;39.17;35.17;;;;;;;19.88;nan;98802.03;2088726;28;20584;-79
2021/07/18 04:40:07;;;;;;;39.53;35.67;;;;;;;19.93;nan;98812.56;2088575;28;20525;-78
2021/07/18 04:41:08;;;;;;;38.67;34.87;;;;;;;19.92;nan;98808.31;2080213;28;20715;-78
2021/07/18 04:42:11;;;;;;;40.03;35.73;;;;;;;19.91;nan;98810.25;2088630;28;20811;-78
2021/07/18 04:43:12;;;;;;;40.33;35.93;;;;;;;19.91;nan;98812.94;2089256;28;20235;-78
2021/07/18 04:44:13;;;;;;;40.57;35.93;;;;;;;19.96;nan;98814.53;2089234;28;20444;-78
2021/07/18 04:45:14;;;;;;;40.93;36.60;;;;;;;19.99;nan;98811.13;2089442;28;20218;-78
2021/07/18 04:46:16;;;;;;;43.93;37.77;;;;;;;19.96;nan;98811.84;2089161;28;20540;-78
2021/07/18 04:47:17;;;;;;;41.07;35.97;;;;;;;19.99;nan;98811.91;2089277;28;20449;-77
2021/07/18 04:48:18;;;;;;;41.23;36.77;;;;;;;20.05;nan;98815.06;2089464;28;20540;-77
2021/07/18 04:49:19;;;;;;;41.33;37.03;;;;;;;20.04;nan;98808.09;2088577;28;20230;-77
2021/07/18 04:50:25;;;;;;;41.50;36.13;;;;;;;20.06;nan;98808.50;2088585;28;20484;-78